createdAt,value
2022-12-19T00:04:36.267Z,21.50
2022-12-19T00:10:38.152Z,21.48
2022-12-19T00:16:40.264Z,22.75
2022-12-19T00:22:42.896Z,20.92
2022-12-19T00:28:47.304Z,23.55
2022-12-19T00:34:49.426Z,23.90
2022-12-19T00:40:51.863Z,21.30
2022-12-19T00:46:53.772Z,23.35
2022-12-19T00:52:55.735Z,25.55
2022-12-19T00:58:58.145Z,22.75
2022-12-19T01:05:00.121Z,24.52
2022-12-19T01:11:02.027Z,21.17
2022-12-19T01:17:03.863Z,22.10
2022-12-19T01:23:07.148Z,20.58
2022-12-19T01:29:08.986Z,24.73
2022-12-19T01:35:13.400Z,20.85
2022-12-19T01:41:23.365Z,23.52
2022-12-19T01:47:29.238Z,25.25
2022-12-19T01:53:48.595Z,29.52
2022-12-19T01:59:59.281Z,24.65
2022-12-19T02:06:02.972Z,21.92
2022-12-19T02:12:05.812Z,23.70
2022-12-19T02:18:41.353Z,26.47
2022-12-19T02:24:54.935Z,22.65
2022-12-19T02:31:16.833Z,28.13
2022-12-19T02:37:35.977Z,29.90
2022-12-19T02:43:49.593Z,24.83
2022-12-19T02:49:56.717Z,24.90
2022-12-19T02:56:10.518Z,26.83
2022-12-19T03:02:17.047Z,27.35
2022-12-19T03:08:37.928Z,27.45
2022-12-19T03:14:40.654Z,25.05
2022-12-19T03:21:04.992Z,24.20
2022-12-19T03:27:14.554Z,26.50
2022-12-19T03:33:18.906Z,25.00
2022-12-19T03:39:21.985Z,27.13
2022-12-19T03:45:51.582Z,26.88
2022-12-19T03:52:13.829Z,26.33
2022-12-19T03:58:30.248Z,28.05
2022-12-19T04:04:37.389Z,28.85
2022-12-19T04:10:48.391Z,29.55
2022-12-19T04:16:59.121Z,26.30
2022-12-19T04:23:24.662Z,31.10
2022-12-19T04:29:28.161Z,29.65
2022-12-19T04:35:30.226Z,27.95
2022-12-19T04:41:32.045Z,25.75
2022-12-19T04:47:34.040Z,26.85
2022-12-19T04:53:36.069Z,25.05
2022-12-19T04:59:37.860Z,27.50
2022-12-19T05:05:39.674Z,27.83
2022-12-19T05:11:41.768Z,25.67
2022-12-19T05:17:43.752Z,30.83
2022-12-19T05:23:45.655Z,30.38
2022-12-19T05:29:47.555Z,28.67
2022-12-19T05:35:49.602Z,28.02
2022-12-19T05:41:51.415Z,30.65
2022-12-19T05:47:55.697Z,32.42
2022-12-19T05:54:00.894Z,33.35
2022-12-19T06:00:04.503Z,28.70
2022-12-19T06:06:16.948Z,30.40
2022-12-19T06:12:18.870Z,33.67
2022-12-19T06:18:20.842Z,34.90
2022-12-19T06:24:25.138Z,29.75
2022-12-19T06:30:27.681Z,35.95
2022-12-19T06:36:30.855Z,32.20
2022-12-19T06:42:32.745Z,32.50
2022-12-19T06:48:34.910Z,35.85
2022-12-19T06:54:39.686Z,34.83
2022-12-19T07:00:41.724Z,35.28
2022-12-19T07:06:49.281Z,37.15
2022-12-19T07:12:51.386Z,35.10
2022-12-19T07:18:53.600Z,35.17
2022-12-19T07:24:57.845Z,38.85
2022-12-19T07:30:59.737Z,36.55
2022-12-19T07:37:01.768Z,41.17
2022-12-19T07:43:05.848Z,41.50
2022-12-19T07:49:07.779Z,39.30
2022-12-19T07:55:10.137Z,36.47
2022-12-19T08:01:14.912Z,41.97
2022-12-19T08:07:17.085Z,41.42
2022-12-19T08:13:19.006Z,41.70
2022-12-19T08:19:24.712Z,40.20
2022-12-19T08:25:29.242Z,46.35
2022-12-19T08:31:31.739Z,43.13
2022-12-19T08:37:34.452Z,45.92
2022-12-19T08:43:36.710Z,48.85
2022-12-19T08:49:38.739Z,45.05
2022-12-19T08:55:40.694Z,43.85
2022-12-19T09:01:42.714Z,49.35
2022-12-19T09:07:44.764Z,46.60
2022-12-19T09:13:48.243Z,46.45
2022-12-19T09:19:50.375Z,47.83
2022-12-19T09:25:52.761Z,50.92
2022-12-19T09:31:56.678Z,46.80
2022-12-19T09:38:00.554Z,52.33
2022-12-19T09:44:33.011Z,51.78
2022-12-19T09:51:10.341Z,44.80
2022-12-19T09:57:35.548Z,51.33
2022-12-19T10:03:42.102Z,49.03
2022-12-19T10:11:58.064Z,52.13
2022-12-19T10:16:21.687Z,54.88
2022-12-19T10:22:42.339Z,53.00
2022-12-19T10:28:53.701Z,53.15
2022-12-19T10:34:55.875Z,49.70
2022-12-19T10:41:18.779Z,54.20
2022-12-19T10:47:20.864Z,47.63
2022-12-19T10:53:28.809Z,47.38
2022-12-19T10:59:30.737Z,53.28
2022-12-19T11:05:44.550Z,47.58
2022-12-19T11:15:40.280Z,52.53
2022-12-19T11:28:19.146Z,51.50
2022-12-19T11:29:32.145Z,45.00
2022-12-19T11:32:33.895Z,45.60
2022-12-19T11:37:55.504Z,46.05
2022-12-19T11:44:20.595Z,44.75
2022-12-19T11:50:35.077Z,51.05
2022-12-19T11:56:37.217Z,44.55
2022-12-19T12:03:34.556Z,43.00
2022-12-19T12:14:35.512Z,43.60
2022-12-19T12:29:37.816Z,43.67
2022-12-19T12:31:23.448Z,46.40
2022-12-19T12:31:38.740Z,40.92
2022-12-19T12:37:57.360Z,43.05
2022-12-19T12:42:19.619Z,41.63
2022-12-19T12:48:59.006Z,44.97
2022-12-19T12:55:03.061Z,41.80
2022-12-19T13:01:25.422Z,44.15
2022-12-19T13:07:51.010Z,40.85
2022-12-19T13:13:58.243Z,41.55
2022-12-19T13:20:03.314Z,37.58
2022-12-19T13:26:19.985Z,41.08
2022-12-19T13:32:23.575Z,44.60
2022-12-19T13:40:00.349Z,44.58
2022-12-19T13:44:51.261Z,43.95
2022-12-19T13:50:54.671Z,42.95
2022-12-19T13:56:57.289Z,45.45
2022-12-19T14:03:00.840Z,39.80
2022-12-19T14:11:24.569Z,39.72
2022-12-19T14:15:33.108Z,43.53
2022-12-19T14:22:05.118Z,37.78
2022-12-19T14:28:23.894Z,38.05
2022-12-19T14:34:47.289Z,41.15
2022-12-19T14:41:07.387Z,38.57
2022-12-19T14:54:15.868Z,39.08
2022-12-19T14:54:40.198Z,39.58
2022-12-19T15:00:00.209Z,37.88
2022-12-19T15:07:07.752Z,38.65
2022-12-19T15:14:54.846Z,39.25
2022-12-19T15:19:39.764Z,40.15
2022-12-19T15:26:03.288Z,41.25
2022-12-19T15:32:03.847Z,40.22
2022-12-19T15:38:05.995Z,41.55
2022-12-19T15:44:19.465Z,45.40
2022-12-19T15:50:24.302Z,41.72
2022-12-19T15:56:29.789Z,46.17
2022-12-19T16:08:55.915Z,44.47
2022-12-19T16:15:00.445Z,44.42
2022-12-19T16:21:02.430Z,42.08
2022-12-19T16:27:04.279Z,48.15
2022-12-19T16:33:16.081Z,41.90
2022-12-19T16:39:18.102Z,44.13
2022-12-19T16:45:25.018Z,50.70
2022-12-19T16:51:27.990Z,46.17
2022-12-19T16:57:29.810Z,43.33
2022-12-19T17:03:31.668Z,42.00
2022-12-19T17:09:33.577Z,49.88
2022-12-19T17:15:37.481Z,42.22
2022-12-19T17:21:39.543Z,42.17
2022-12-19T17:27:41.543Z,39.08
2022-12-19T17:33:43.843Z,40.55
2022-12-19T17:39:45.878Z,42.10
2022-12-19T17:45:49.710Z,43.72
2022-12-19T17:51:52.488Z,42.17
2022-12-19T17:57:55.563Z,45.60
2022-12-19T18:03:58.727Z,46.78
2022-12-19T18:10:00.706Z,43.22
2022-12-19T18:16:03.822Z,44.90
2022-12-19T18:22:14.372Z,45.38
2022-12-19T18:28:17.152Z,44.17
2022-12-19T18:34:25.281Z,43.53
2022-12-19T18:40:31.192Z,42.78
2022-12-19T18:46:34.538Z,38.28
2022-12-19T18:52:36.490Z,36.35
2022-12-19T18:58:38.573Z,41.20
2022-12-19T19:04:40.598Z,44.13
2022-12-19T19:10:42.857Z,41.47
2022-12-19T19:16:47.600Z,39.78
2022-12-19T19:22:49.815Z,37.83
2022-12-19T19:28:52.768Z,37.58
2022-12-19T19:34:55.737Z,37.85
2022-12-19T19:41:00.717Z,38.30
2022-12-19T19:47:02.628Z,40.22
2022-12-19T19:53:04.648Z,40.80
2022-12-19T19:59:06.592Z,38.65
2022-12-19T20:05:08.921Z,40.20
2022-12-19T20:11:11.101Z,41.55
2022-12-19T20:17:13.064Z,41.60
2022-12-19T20:23:15.015Z,42.35
2022-12-19T20:29:17.050Z,44.70
2022-12-19T20:35:18.984Z,39.42
2022-12-19T20:41:21.293Z,44.38
2022-12-19T20:47:24.618Z,41.40
2022-12-19T20:53:26.790Z,44.35
2022-12-19T20:59:28.977Z,38.78
2022-12-19T21:05:31.173Z,39.33
2022-12-19T21:11:35.691Z,35.35
2022-12-19T21:17:37.979Z,41.15
2022-12-19T21:23:40.207Z,39.40
2022-12-19T21:29:42.175Z,43.97
2022-12-19T21:35:45.245Z,44.25
2022-12-19T21:41:47.467Z,40.78
2022-12-19T21:47:49.635Z,41.55
2022-12-19T21:54:03.176Z,41.55
2022-12-19T22:00:06.578Z,43.25
2022-12-19T22:06:15.428Z,42.15
2022-12-19T22:12:17.898Z,41.70
2022-12-19T22:18:20.256Z,42.83
2022-12-19T22:24:22.664Z,41.97
2022-12-19T22:30:24.938Z,37.80
2022-12-19T22:36:29.691Z,41.65
2022-12-19T22:42:31.902Z,41.00
2022-12-19T22:48:33.857Z,37.22
2022-12-19T22:54:35.682Z,38.92
2022-12-19T23:00:37.661Z,40.38
2022-12-19T23:06:39.542Z,44.53
2022-12-19T23:12:41.484Z,42.35
2022-12-19T23:18:43.629Z,36.95
2022-12-19T23:24:45.648Z,37.40
2022-12-19T23:30:47.759Z,40.08
2022-12-19T23:43:11.491Z,47.40
2022-12-19T23:49:13.558Z,43.53
2022-12-19T23:55:22.318Z,39.95
